Terminal Aerodrome Forecast
Issued by NWS

Home | Current Version | Previous Version | Text Only | Print | Product List | Glossary On
Versions: 1 2 3 4 5 6 7 8 9 10 11 12 13 14 15 16
000
FTUS43 KGRB 231140
TAFMTW
TAF
KMTW 231140Z 2312/2412 34004KT P6SM FEW090
     FM231400 04005KT P6SM SCT120 BKN200
     FM231800 10007KT P6SM SCT120 BKN200
     FM240400 16005KT P6SM SCT060 BKN090
     FM240600 16006KT P6SM SCT025 OVC040 WS020/21035KT
      TEMPO 2406/2410 1SM TSRA BKN025CB
     FM241000 19007KT P6SM SHRA OVC025 WS020/21035KT=

USA.gov is the U.S. government's official web portal to all federal, state and local government web resources and services.